Time;durP1;ratioP1;P1;durP2;ratioP2;P2;SDS_P1;SDS_P2;PMS_P1;PMS_P2;Temp;Humidity;BMP_temperature;BMP_pressure;BME280_temperature;BME280_humidity;BME280_pressure;Samples;Min_cycle;Max_cycle;Signal;HPM_P1;HPM_P2
2023/12/26 00:01:47;;;;;;;5.85;3.30;;;;;;;4.97;89.71;94756.81;5050745;28;20373;-81
2023/12/26 00:04:15;;;;;;;7.35;3.28;;;;;;;5.14;88.90;94760.91;5051079;28;20583;-84
2023/12/26 00:06:43;;;;;;;6.57;3.58;;;;;;;4.99;89.01;94754.66;5050652;28;20208;-83
2023/12/26 00:09:11;;;;;;;6.18;2.90;;;;;;;4.97;91.18;94756.81;5050968;28;20258;-83
2023/12/26 00:11:43;;;;;;;0.63;0.63;;;;;;;4.93;90.02;94766.53;5050443;28;20213;-82
2023/12/26 00:14:10;;;;;;;0.47;0.47;;;;;;;4.85;90.31;94764.50;5050631;28;20775;-83
2023/12/26 00:16:41;;;;;;;1.30;1.20;;;;;;;4.74;92.00;94768.41;5050915;28;20726;-84
2023/12/26 00:19:08;;;;;;;0.75;0.40;;;;;;;4.84;91.23;94773.63;5050500;28;20207;-82
2023/12/26 00:21:34;;;;;;;0.65;0.65;;;;;;;4.88;92.35;94774.69;5051291;28;20214;-83
2023/12/26 00:24:02;;;;;;;0.60;0.60;;;;;;;4.83;90.74;94758.63;5050444;28;20212;-82
2023/12/26 00:26:29;;;;;;;1.77;1.67;;;;;;;4.92;91.79;94766.84;5051176;28;20637;-83
2023/12/26 00:28:57;;;;;;;0.60;0.60;;;;;;;5.03;91.70;94770.19;5050939;28;20592;-82
2023/12/26 00:31:24;;;;;;;0.20;0.20;;;;;;;5.16;92.33;94764.09;5050422;28;20235;-82
2023/12/26 00:33:53;;;;;;;0.20;0.20;;;;;;;5.25;92.53;94773.09;5050443;28;20208;-83
2023/12/26 00:36:20;;;;;;;0.77;0.77;;;;;;;5.09;90.64;94774.38;5037604;28;20219;-83
2023/12/26 00:38:47;;;;;;;0.25;0.25;;;;;;;5.12;90.98;94784.56;5050429;28;20233;-83
2023/12/26 00:41:15;;;;;;;1.55;0.88;;;;;;;4.97;91.09;94797.09;5050798;28;20215;-82
2023/12/26 00:43:42;;;;;;;2.47;1.10;;;;;;;4.97;91.57;94789.03;5050662;28;20214;-83
2023/12/26 00:46:10;;;;;;;0.32;0.32;;;;;;;5.06;91.61;94796.47;5050580;28;20204;-82
2023/12/26 00:48:37;;;;;;;2.05;1.42;;;;;;;4.95;91.12;94807.31;5050281;28;20555;-83
2023/12/26 00:51:05;;;;;;;0.38;0.38;;;;;;;4.78;91.49;94795.47;5052134;28;20261;-83
2023/12/26 00:53:32;;;;;;;3.53;1.33;;;;;;;4.83;91.79;94806.94;5051571;28;20207;-82
2023/12/26 00:55:59;;;;;;;1.33;1.00;;;;;;;4.96;92.60;94798.19;5043324;28;20211;-82
2023/12/26 00:58:26;;;;;;;0.30;0.30;;;;;;;5.06;92.11;94807.22;5054110;28;20222;-83
2023/12/26 01:00:53;;;;;;;0.55;0.55;;;;;;;4.97;91.98;94813.19;5053958;28;20218;-84
2023/12/26 01:03:22;;;;;;;0.28;0.28;;;;;;;4.79;91.84;94811.25;5054657;28;20207;-83
2023/12/26 01:05:52;;;;;;;0.40;0.40;;;;;;;4.81;91.04;94817.16;5054007;28;20215;-84
2023/12/26 01:08:19;;;;;;;0.65;0.65;;;;;;;4.82;92.81;94813.38;5053586;28;20216;-83
2023/12/26 01:10:46;;;;;;;0.20;0.20;;;;;;;4.98;92.88;94817.47;5054190;28;20214;-82
2023/12/26 01:13:15;;;;;;;0.65;0.65;;;;;;;4.99;92.66;94808.34;5053524;28;20211;-82
2023/12/26 01:15:42;;;;;;;0.52;0.52;;;;;;;4.97;93.48;94815.09;5053537;28;20208;-83
2023/12/26 01:18:08;;;;;;;0.20;0.20;;;;;;;4.98;91.82;94817.47;5053405;28;20218;-83
2023/12/26 01:20:37;;;;;;;0.20;0.20;;;;;;;4.86;91.25;94805.56;5053483;28;20278;-82
2023/12/26 01:23:04;;;;;;;1.70;1.63;;;;;;;4.65;92.14;94810.34;5053698;28;20215;-82
2023/12/26 01:25:31;;;;;;;0.30;0.30;;;;;;;4.70;92.64;94818.34;5054093;28;20214;-82
2023/12/26 01:27:58;;;;;;;0.38;0.38;;;;;;;4.67;93.19;94805.50;5053031;28;20226;-82
2023/12/26 01:30:25;;;;;;;0.77;0.73;;;;;;;4.68;93.16;94801.75;5052871;28;20239;-84
2023/12/26 01:32:52;;;;;;;0.45;0.45;;;;;;;4.66;92.57;94806.59;5053622;28;20621;-83
2023/12/26 01:35:19;;;;;;;0.57;0.40;;;;;;;4.49;92.77;94798.22;5053362;28;20211;-82
2023/12/26 01:37:47;;;;;;;0.38;0.38;;;;;;;4.50;93.45;94805.19;5054285;28;20314;-83
2023/12/26 01:40:14;;;;;;;0.35;0.35;;;;;;;4.56;92.77;94806.72;5053757;28;20645;-83
2023/12/26 01:42:45;;;;;;;0.20;0.20;;;;;;;4.52;93.23;94811.03;5053491;28;20210;-82
2023/12/26 01:45:12;;;;;;;0.30;0.30;;;;;;;4.59;93.60;94811.50;5052963;28;20203;-84
2023/12/26 01:47:39;;;;;;;0.30;0.30;;;;;;;4.68;94.21;94812.47;5052926;28;20292;-84
2023/12/26 01:50:07;;;;;;;0.20;0.20;;;;;;;4.66;93.88;94801.22;5053405;28;20224;-82
2023/12/26 01:52:35;;;;;;;0.50;0.50;;;;;;;4.41;92.53;94802.31;5052604;28;20243;-82
2023/12/26 01:55:05;;;;;;;1.50;1.05;;;;;;;4.47;92.50;94816.47;5052630;28;20210;-82
2023/12/26 01:57:34;;;;;;;0.30;0.30;;;;;;;4.40;93.61;94816.00;5053319;28;20207;-82
2023/12/26 02:00:02;;;;;;;0.40;0.40;;;;;;;4.21;92.62;94824.78;5053466;28;20203;-83
2023/12/26 02:02:30;;;;;;;0.20;0.20;;;;;;;4.23;93.20;94827.97;5053184;28;20254;-84
2023/12/26 02:04:57;;;;;;;0.40;0.40;;;;;;;4.30;92.56;94827.63;5052705;28;20214;-83
2023/12/26 02:07:24;;;;;;;0.52;0.52;;;;;;;4.28;93.47;94824.44;5052954;28;20215;-83
2023/12/26 02:09:51;;;;;;;2.50;1.85;;;;;;;4.30;93.31;94806.19;5052929;28;20711;-83
2023/12/26 02:12:20;;;;;;;3.20;1.63;;;;;;;4.55;91.54;94807.78;5052972;28;20313;-83
2023/12/26 02:14:48;;;;;;;0.20;0.20;;;;;;;4.43;91.65;94810.06;5052333;28;20206;-84
2023/12/26 02:17:20;;;;;;;0.30;0.30;;;;;;;4.57;91.29;94811.78;5053182;28;20298;-82
2023/12/26 02:19:47;;;;;;;0.22;0.22;;;;;;;4.57;90.59;94793.00;5053198;28;20567;-83
2023/12/26 02:22:14;;;;;;;0.45;0.45;;;;;;;4.53;91.16;94794.66;5052879;28;20224;-82
2023/12/26 02:24:43;;;;;;;5.18;0.85;;;;;;;4.69;91.24;94806.03;5052336;28;20200;-83
2023/12/26 02:27:16;;;;;;;0.20;0.20;;;;;;;4.72;89.93;94805.47;5052656;28;20215;-83
2023/12/26 02:29:44;;;;;;;0.20;0.20;;;;;;;4.60;90.45;94799.69;5052065;28;20599;-83
2023/12/26 02:32:12;;;;;;;0.45;0.45;;;;;;;4.53;92.00;94800.03;5052026;28;20247;-82
2023/12/26 02:34:39;;;;;;;0.25;0.25;;;;;;;4.46;93.70;94799.56;5052625;28;20638;-82
2023/12/26 02:37:07;;;;;;;1.17;1.15;;;;;;;4.53;93.24;94796.53;5052767;28;20210;-83
2023/12/26 02:39:34;;;;;;;0.20;0.20;;;;;;;4.69;93.17;94811.38;5052887;28;20601;-82
2023/12/26 02:42:02;;;;;;;0.40;0.40;;;;;;;4.57;92.17;94811.78;5052361;28;20203;-83
2023/12/26 02:44:29;;;;;;;0.93;0.55;;;;;;;4.65;92.77;94810.34;5052850;28;20212;-83
2023/12/26 02:46:56;;;;;;;0.30;0.30;;;;;;;4.63;92.57;94815.22;5052879;28;20303;-82
2023/12/26 02:49:22;;;;;;;0.38;0.38;;;;;;;4.59;92.88;94822.25;5052919;28;20258;-83
2023/12/26 02:51:49;;;;;;;0.28;0.28;;;;;;;4.15;93.34;94801.75;5052706;28;20215;-83
2023/12/26 02:54:18;;;;;;;0.30;0.30;;;;;;;4.37;94.17;94827.31;5052903;28;20281;-83
2023/12/26 02:56:46;;;;;;;0.28;0.28;;;;;;;4.37;94.99;94816.59;5053546;28;20561;-83
2023/12/26 02:59:14;;;;;;;0.60;0.60;;;;;;;4.40;93.42;94826.72;5053785;28;20207;-83
2023/12/26 03:01:44;;;;;;;1.48;1.15;;;;;;;4.31;94.15;94826.56;5052838;28;20701;-83
2023/12/26 03:04:11;;;;;;;0.47;0.47;;;;;;;4.19;95.05;94832.28;5052844;28;20277;-82
2023/12/26 03:06:38;;;;;;;0.47;0.47;;;;;;;4.01;96.46;94824.13;5052813;28;20207;-83
2023/12/26 03:09:05;;;;;;;0.40;0.40;;;;;;;4.18;96.92;94824.53;5052954;28;20227;-84
2023/12/26 03:11:32;;;;;;;0.77;0.77;;;;;;;3.96;96.37;94822.31;5052916;28;20231;-83
2023/12/26 03:13:59;;;;;;;0.20;0.20;;;;;;;4.05;97.16;94826.00;5052369;28;20229;-82
2023/12/26 03:16:28;;;;;;;1.38;1.33;;;;;;;4.29;96.24;94837.56;5052720;28;20286;-82
2023/12/26 03:18:55;;;;;;;0.30;0.30;;;;;;;4.33;96.46;94837.00;5053244;28;20207;-82
2023/12/26 03:21:22;;;;;;;0.28;0.28;;;;;;;4.19;95.49;94834.97;5053201;28;20217;-82
2023/12/26 03:23:49;;;;;;;0.60;0.60;;;;;;;4.24;95.73;94839.47;5052820;28;20208;-82
2023/12/26 03:26:16;;;;;;;1.45;0.85;;;;;;;4.34;96.12;94838.59;5056095;28;20214;-83
2023/12/26 03:28:42;;;;;;;0.25;0.25;;;;;;;4.39;94.84;94830.47;5055681;28;20235;-83
2023/12/26 03:31:09;;;;;;;0.60;0.30;;;;;;;4.21;95.35;94835.50;5053542;28;20345;-83
2023/12/26 03:33:38;;;;;;;6.05;1.23;;;;;;;4.17;95.02;94828.28;5053180;28;20230;-82
2023/12/26 03:36:06;;;;;;;0.52;0.52;;;;;;;4.32;96.43;94840.75;5053102;28;20218;-83
2023/12/26 03:38:33;;;;;;;0.20;0.20;;;;;;;4.19;95.43;94834.97;5054081;28;20218;-84
2023/12/26 03:41:00;;;;;;;1.10;1.02;;;;;;;4.09;96.74;94843.13;5053711;28;20211;-83
2023/12/26 03:43:27;;;;;;;0.28;0.28;;;;;;;4.17;96.43;94839.81;5053418;28;20212;-82
2023/12/26 03:45:54;;;;;;;0.20;0.20;;;;;;;4.15;95.01;94836.63;5051678;28;20302;-83
2023/12/26 03:48:20;;;;;;;2.17;1.35;;;;;;;4.03;94.51;94844.22;5051659;28;20211;-81
2023/12/26 03:50:49;;;;;;;0.30;0.30;;;;;;;3.98;95.94;94830.06;5051426;28;20234;-83
2023/12/26 03:53:16;;;;;;;0.38;0.28;;;;;;;4.02;95.77;94831.91;5051389;28;20206;-81
2023/12/26 03:55:43;;;;;;;0.22;0.22;;;;;;;4.02;95.32;94836.47;5051074;28;20277;-82
2023/12/26 03:58:10;;;;;;;2.17;1.70;;;;;;;3.95;95.84;94842.16;5051814;28;20215;-82
2023/12/26 04:00:37;;;;;;;0.20;0.20;;;;;;;3.97;96.16;94839.97;5051399;28;20633;-82
2023/12/26 04:03:04;;;;;;;0.90;0.90;;;;;;;3.99;96.37;94843.19;5051389;28;20533;-82
2023/12/26 04:05:31;;;;;;;0.20;0.20;;;;;;;4.04;96.72;94845.81;5051115;28;20215;-82
2023/12/26 04:07:59;;;;;;;2.75;1.02;;;;;;;3.98;96.86;94846.94;5051213;28;20210;-82
2023/12/26 04:10:26;;;;;;;0.20;0.20;;;;;;;3.85;96.76;94831.50;5051303;28;20231;-83
2023/12/26 04:12:56;;;;;;;0.30;0.30;;;;;;;3.87;96.90;94840.88;5051391;28;20207;-83
2023/12/26 04:15:24;;;;;;;0.20;0.20;;;;;;;3.84;96.16;94845.97;5051285;28;20230;-82
2023/12/26 04:17:51;;;;;;;0.85;0.85;;;;;;;3.78;95.42;94852.47;5051388;28;20595;-84
2023/12/26 04:20:18;;;;;;;0.20;0.20;;;;;;;3.64;94.84;94856.84;5053556;28;20211;-82
2023/12/26 04:22:44;;;;;;;0.20;0.20;;;;;;;3.56;96.84;94856.34;5051109;28;20222;-84
2023/12/26 04:25:13;;;;;;;0.30;0.30;;;;;;;3.53;96.42;94856.91;5054153;28;20219;-83
2023/12/26 04:27:40;;;;;;;0.20;0.20;;;;;;;3.55;96.45;94860.09;5056006;28;20225;-83
2023/12/26 04:30:08;;;;;;;0.20;0.20;;;;;;;3.58;97.53;94864.91;5056697;28;20223;-83
2023/12/26 04:32:35;;;;;;;0.65;0.63;;;;;;;3.70;97.80;94866.44;5057911;28;20242;-82
2023/12/26 04:35:02;;;;;;;0.20;0.20;;;;;;;3.61;97.12;94852.03;5059436;28;20214;-82
2023/12/26 04:37:29;;;;;;;0.20;0.20;;;;;;;3.81;98.13;94873.34;5059752;28;20218;-82
2023/12/26 04:39:56;;;;;;;0.73;0.73;;;;;;;3.82;96.70;94864.22;5056445;28;20199;-83
2023/12/26 04:42:24;;;;;;;3.40;2.05;;;;;;;3.83;96.42;94855.09;5054676;28;20230;-82
2023/12/26 04:44:51;;;;;;;2.65;1.92;;;;;;;3.77;93.85;94870.41;5053946;28;20209;-83
2023/12/26 04:47:19;;;;;;;1.95;1.30;;;;;;;3.67;95.64;94864.34;5054318;28;20215;-82
2023/12/26 04:49:46;;;;;;;4.22;1.48;;;;;;;3.52;95.25;94855.31;5054400;28;20281;-81
2023/12/26 04:52:13;;;;;;;2.83;1.50;;;;;;;3.63;97.31;94871.31;5054536;28;20560;-82
2023/12/26 04:54:40;;;;;;;1.63;1.40;;;;;;;3.77;97.96;94872.28;5053899;28;20211;-82
2023/12/26 04:57:10;;;;;;;1.70;1.20;;;;;;;3.89;97.64;94870.06;5053502;28;20246;-82
2023/12/26 04:59:39;;;;;;;2.03;1.15;;;;;;;3.96;98.18;94865.19;5054233;28;20200;-83
2023/12/26 05:02:06;;;;;;;2.88;1.42;;;;;;;3.92;97.80;94874.88;5053940;28;20214;-82
2023/12/26 05:04:33;;;;;;;2.28;1.33;;;;;;;3.92;97.49;94881.03;5054574;28;20682;-83
2023/12/26 05:07:00;;;;;;;6.10;3.10;;;;;;;3.90;97.58;94869.00;5053850;28;20219;-82
2023/12/26 05:09:27;;;;;;;4.53;2.97;;;;;;;3.80;97.56;94875.22;5054005;28;20228;-82
2023/12/26 05:11:54;;;;;;;12.65;3.95;;;;;;;3.88;97.92;94871.13;5054024;28;20294;-82
2023/12/26 05:14:22;;;;;;;3.17;1.58;;;;;;;3.88;98.10;94873.81;5054309;28;20241;-82
2023/12/26 05:16:51;;;;;;;2.03;1.90;;;;;;;4.01;99.30;94873.19;5054095;28;20572;-82
2023/12/26 05:19:17;;;;;;;0.57;0.57;;;;;;;4.02;100.00;94852.53;5053737;28;20199;-82
2023/12/26 05:21:44;;;;;;;0.45;0.45;;;;;;;4.07;97.22;94863.22;5053851;28;20218;-82
2023/12/26 05:24:11;;;;;;;5.47;0.70;;;;;;;4.00;96.54;94860.06;5054021;28;20207;-82
2023/12/26 05:26:39;;;;;;;0.20;0.20;;;;;;;3.91;96.07;94855.31;5054136;28;20208;-82
2023/12/26 05:29:06;;;;;;;0.20;0.20;;;;;;;3.83;96.71;94865.81;5053470;28;20208;-82
2023/12/26 05:31:33;;;;;;;0.95;0.93;;;;;;;3.79;96.39;94860.22;5053927;28;20777;-83
2023/12/26 05:34:04;;;;;;;0.20;0.20;;;;;;;3.85;96.46;94864.44;5053100;28;20215;-82
2023/12/26 05:36:31;;;;;;;0.50;0.50;;;;;;;3.79;97.13;94862.91;5053262;28;20249;-82
2023/12/26 05:38:58;;;;;;;0.77;0.50;;;;;;;3.85;97.75;94863.66;5053179;28;20286;-82
2023/12/26 05:41:25;;;;;;;0.80;0.80;;;;;;;3.68;97.21;94860.59;5054241;28;20203;-82
2023/12/26 05:43:52;;;;;;;0.45;0.45;;;;;;;3.68;96.33;94864.06;5052847;28;20474;-82
2023/12/26 05:46:20;;;;;;;0.68;0.68;;;;;;;3.63;95.73;94860.59;5053919;28;20588;-82
2023/12/26 05:48:47;;;;;;;0.20;0.20;;;;;;;3.58;95.33;94864.91;5053447;28;20670;-82
2023/12/26 05:51:16;;;;;;;0.30;0.30;;;;;;;3.57;95.49;94862.50;5053214;28;20314;-82
2023/12/26 05:53:42;;;;;;;0.22;0.22;;;;;;;3.69;96.33;94864.88;5052880;28;20203;-81
2023/12/26 05:56:09;;;;;;;0.85;0.50;;;;;;;3.69;96.72;94864.88;5053257;28;20225;-83
2023/12/26 05:58:36;;;;;;;0.32;0.32;;;;;;;3.78;97.04;94874.69;5053150;28;20573;-81
2023/12/26 06:01:03;;;;;;;0.28;0.28;;;;;;;3.66;96.21;94881.47;5052511;28;20208;-81
2023/12/26 06:03:30;;;;;;;0.20;0.20;;;;;;;3.63;95.67;94880.16;5053347;28;20567;-82
2023/12/26 06:05:57;;;;;;;1.17;0.63;;;;;;;3.84;97.08;94881.59;5052812;28;20223;-82
2023/12/26 06:08:30;;;;;;;0.63;0.63;;;;;;;3.76;95.75;94868.00;5052314;28;20222;-82
2023/12/26 06:10:57;;;;;;;1.00;0.95;;;;;;;3.86;96.99;94881.34;5052773;28;20604;-82
2023/12/26 06:13:25;;;;;;;0.32;0.30;;;;;;;3.83;96.74;94871.16;5053016;28;20212;-82
2023/12/26 06:15:52;;;;;;;0.55;0.55;;;;;;;4.06;96.44;94886.56;5053307;28;20723;-80
2023/12/26 06:18:19;;;;;;;8.45;3.95;;;;;;;4.83;95.40;94884.75;5052129;28;20208;-82
2023/12/26 06:20:46;;;;;;;8.32;4.18;;;;;;;5.22;91.74;94881.88;5052410;28;20199;-81
2023/12/26 06:23:13;;;;;;;7.63;3.97;;;;;;;5.55;90.13;94880.13;5052320;28;20266;-81
2023/12/26 06:25:41;;;;;;;1.58;1.48;;;;;;;5.75;87.95;94879.03;5052329;28;20648;-81
2023/12/26 06:31:18;;;;;;;0.25;0.25;;;;;;;5.14;87.96;94876.34;5015669;28;20355;-81
2023/12/26 06:33:45;;;;;;;0.35;0.35;;;;;;;5.07;89.24;94873.22;5051974;28;20598;-81
2023/12/26 06:36:12;;;;;;;0.38;0.38;;;;;;;4.89;89.37;94886.31;5052643;28;20200;-82
2023/12/26 06:38:39;;;;;;;0.88;0.88;;;;;;;4.70;90.61;94880.06;5052332;28;20204;-81
2023/12/26 06:41:09;;;;;;;0.30;0.30;;;;;;;4.69;91.30;94897.25;5051982;28;20207;-82
2023/12/26 06:43:36;;;;;;;0.98;0.68;;;;;;;4.76;90.82;94894.25;5051969;28;20200;-81
2023/12/26 06:46:05;;;;;;;0.50;0.50;;;;;;;4.52;90.12;94888.81;5051906;28;20207;-81
2023/12/26 06:48:33;;;;;;;0.20;0.20;;;;;;;4.04;92.54;94891.38;5051152;28;20230;-81
2023/12/26 06:51:04;;;;;;;7.57;3.38;;;;;;;4.08;94.13;94903.16;5051758;28;20237;-81
2023/12/26 06:53:30;;;;;;;7.68;2.40;;;;;;;4.25;93.25;94895.50;5051760;28;20207;-82
2023/12/26 06:55:57;;;;;;;3.72;2.28;;;;;;;3.88;94.18;94890.69;5051914;28;20212;-81
2023/12/26 06:58:26;;;;;;;3.65;2.10;;;;;;;4.01;94.88;94909.91;5052285;28;20215;-82
2023/12/26 07:00:53;;;;;;;5.53;2.42;;;;;;;4.41;94.42;94900.72;5051893;28;20246;-81
2023/12/26 07:03:20;;;;;;;2.08;1.65;;;;;;;4.58;93.41;94903.81;5051935;28;20612;-82
2023/12/26 07:05:47;;;;;;;4.78;2.45;;;;;;;4.72;92.33;94904.72;5052149;28;20656;-81
2023/12/26 07:08:14;;;;;;;6.40;2.90;;;;;;;5.04;93.04;94914.06;5051709;28;20648;-82
2023/12/26 07:10:52;;;;;;;5.32;3.03;;;;;;;5.14;91.22;94903.22;5129101;27;20823;-81
2023/12/26 07:13:19;;;;;;;9.63;4.35;;;;;;;4.81;91.72;94905.69;5115423;28;20209;-82
2023/12/26 07:15:46;;;;;;;7.90;3.33;;;;;;;5.08;92.30;94917.75;5117284;28;20258;-81
2023/12/26 07:18:13;;;;;;;7.20;2.97;;;;;;;5.28;92.24;94921.03;5127716;28;20705;-82
2023/12/26 07:20:39;;;;;;;7.15;3.42;;;;;;;5.29;90.32;94919.16;5129052;27;20591;-82
2023/12/26 07:23:07;;;;;;;5.35;2.88;;;;;;;5.42;90.99;94923.81;5128741;28;20208;-82
2023/12/26 07:25:34;;;;;;;0.30;0.30;;;;;;;5.50;90.57;94920.47;5116757;28;20255;-81
2023/12/26 07:28:03;;;;;;;0.45;0.45;;;;;;;5.79;89.33;94911.50;5127977;28;20568;-82
2023/12/26 07:30:30;;;;;;;0.75;0.75;;;;;;;6.00;87.41;94923.63;5128577;28;20243;-82
2023/12/26 07:32:56;;;;;;;0.30;0.30;;;;;;;5.85;88.44;94923.81;5129258;28;20284;-82
2023/12/26 07:35:23;;;;;;;0.88;0.88;;;;;;;5.94;86.57;94919.38;5128331;28;20212;-83
2023/12/26 07:37:50;;;;;;;1.85;1.00;;;;;;;5.92;87.31;94910.81;5108550;28;20232;-82
2023/12/26 07:40:17;;;;;;;0.25;0.25;;;;;;;6.27;87.12;94923.75;5108181;28;20237;-81
2023/12/26 07:42:44;;;;;;;0.57;0.57;;;;;;;6.16;86.90;94908.03;5108108;28;20297;-81
2023/12/26 07:45:15;;;;;;;0.20;0.20;;;;;;;6.50;85.67;94905.88;5107851;28;20205;-82
2023/12/26 07:47:42;;;;;;;0.63;0.63;;;;;;;6.35;85.69;94904.22;5094935;28;20206;-82
2023/12/26 07:50:09;;;;;;;0.40;0.40;;;;;;;6.51;85.34;94922.81;5107423;28;20225;-82
2023/12/26 07:52:37;;;;;;;1.23;1.15;;;;;;;6.43;83.97;94921.59;5109198;28;20557;-82
2023/12/26 07:55:04;;;;;;;0.30;0.30;;;;;;;6.53;83.28;94924.13;5107551;28;20209;-82
2023/12/26 07:57:31;;;;;;;0.82;0.82;;;;;;;6.84;85.22;94920.88;5108067;28;20221;-82
2023/12/26 07:59:58;;;;;;;6.13;1.08;;;;;;;7.08;82.24;94924.25;5122932;28;20220;-81
2023/12/26 08:02:28;;;;;;;0.40;0.40;;;;;;;7.27;82.03;94926.81;5119785;27;20619;-83
2023/12/26 08:04:55;;;;;;;0.50;0.50;;;;;;;7.24;81.21;94924.75;5110231;28;20201;-82
2023/12/26 08:07:21;;;;;;;0.45;0.35;;;;;;;7.11;78.95;94921.72;5128103;28;20212;-82
2023/12/26 08:09:48;;;;;;;0.30;0.30;;;;;;;7.10;80.05;94919.34;5127309;28;20234;-81
2023/12/26 08:12:17;;;;;;;1.00;1.00;;;;;;;7.09;80.07;94918.56;5127778;28;20213;-82
2023/12/26 08:14:43;;;;;;;1.08;0.88;;;;;;;7.22;79.00;94924.25;5127724;28;20209;-81
2023/12/26 08:17:10;;;;;;;0.45;0.45;;;;;;;7.42;78.43;94915.75;5127881;28;20699;-83
2023/12/26 08:19:39;;;;;;;1.00;1.00;;;;;;;7.74;77.75;94912.94;5110193;28;20206;-82
2023/12/26 08:22:05;;;;;;;0.22;0.22;;;;;;;7.70;76.76;94909.22;5093559;28;20239;-82
2023/12/26 08:24:32;;;;;;;1.55;1.45;;;;;;;7.89;78.01;94902.91;5097992;28;20213;-82
2023/12/26 08:26:59;;;;;;;2.03;1.58;;;;;;;7.96;77.54;94914.88;5113739;28;20212;-82
2023/12/26 08:29:26;;;;;;;4.20;1.13;;;;;;;8.11;77.50;94919.13;5113391;28;20236;-82
2023/12/26 08:32:08;;;;;;;2.70;2.25;;;;;;;8.23;74.86;94913.19;5113516;28;20260;-83
2023/12/26 08:34:35;;;;;;;0.80;0.73;;;;;;;8.11;74.39;94916.44;5114053;28;20201;-83
2023/12/26 08:37:04;;;;;;;0.73;0.73;;;;;;;8.34;74.01;94914.56;5100015;28;20223;-82
2023/12/26 08:39:30;;;;;;;0.60;0.60;;;;;;;8.36;72.93;94915.88;5079960;28;20201;-82
2023/12/26 08:41:57;;;;;;;0.20;0.20;;;;;;;8.31;73.57;94904.38;5092805;28;20206;-82
2023/12/26 08:44:24;;;;;;;0.65;0.65;;;;;;;8.39;74.25;94914.47;5093053;28;20206;-82
2023/12/26 08:46:51;;;;;;;0.22;0.22;;;;;;;8.50;72.75;94913.91;5106743;28;20216;-81
2023/12/26 08:49:18;;;;;;;0.52;0.52;;;;;;;8.48;71.85;94908.00;5113652;28;20233;-82
2023/12/26 08:51:45;;;;;;;0.73;0.73;;;;;;;8.64;72.50;94913.84;5112866;28;20214;-83
2023/12/26 08:54:14;;;;;;;1.08;0.93;;;;;;;8.96;70.91;94903.88;5097606;28;20203;-82
2023/12/26 08:56:48;;;;;;;0.20;0.20;;;;;;;8.61;71.56;94892.09;5103600;28;20603;-81
2023/12/26 08:59:15;;;;;;;0.52;0.52;;;;;;;8.61;72.03;94887.44;5112779;28;20295;-82
2023/12/26 09:01:42;;;;;;;0.30;0.30;;;;;;;8.90;71.69;94901.28;5109947;28;20290;-82
2023/12/26 09:04:09;;;;;;;2.50;1.40;;;;;;;8.92;72.24;94898.28;5102657;28;20256;-82
2023/12/26 09:06:36;;;;;;;1.75;1.05;;;;;;;8.67;72.56;94896.22;5095639;28;20217;-81
2023/12/26 09:09:03;;;;;;;0.55;0.55;;;;;;;8.78;73.23;94887.56;5102380;28;20237;-81
2023/12/26 09:11:32;;;;;;;0.52;0.52;;;;;;;8.85;72.07;94895.25;5112624;28;20282;-82
2023/12/26 09:13:59;;;;;;;0.88;0.88;;;;;;;8.91;72.46;94896.69;5113273;28;20288;-81
2023/12/26 09:16:26;;;;;;;0.80;0.80;;;;;;;9.14;71.80;94889.34;5113062;28;20212;-82
2023/12/26 09:18:53;;;;;;;0.20;0.20;;;;;;;9.39;71.94;94895.94;5112476;28;20234;-83
2023/12/26 09:21:20;;;;;;;0.50;0.50;;;;;;;9.50;71.56;94875.63;5113108;28;20229;-81
2023/12/26 09:23:47;;;;;;;1.00;1.00;;;;;;;9.71;70.40;94870.41;5113162;28;20206;-82
2023/12/26 09:26:14;;;;;;;0.82;0.82;;;;;;;9.47;70.04;94870.81;5112499;28;20202;-82
2023/12/26 09:28:43;;;;;;;0.60;0.60;;;;;;;9.70;70.13;94869.63;5113222;28;20212;-82
2023/12/26 09:31:10;;;;;;;0.50;0.50;;;;;;;10.02;70.98;94870.28;5092573;28;20234;-82
2023/12/26 09:33:38;;;;;;;1.13;1.02;;;;;;;10.25;69.04;94855.53;5092447;28;20224;-82
2023/12/26 09:36:06;;;;;;;0.40;0.40;;;;;;;10.51;66.56;94861.72;5092006;28;20206;-81
2023/12/26 09:38:32;;;;;;;0.63;0.63;;;;;;;10.31;66.80;94856.94;5092118;28;20279;-83
2023/12/26 09:40:59;;;;;;;0.60;0.60;;;;;;;10.30;65.24;94845.31;5098280;28;20290;-81
2023/12/26 09:43:26;;;;;;;4.72;1.20;;;;;;;10.43;65.48;94827.28;5098618;28;20216;-83
2023/12/26 09:45:56;;;;;;;7.63;3.47;;;;;;;10.40;64.25;94833.34;5091388;28;20290;-83
2023/12/26 09:48:23;;;;;;;1.10;1.00;;;;;;;10.48;62.93;94829.84;5105288;28;20247;-81
2023/12/26 09:50:54;;;;;;;1.02;0.75;;;;;;;10.58;63.16;94832.19;5112065;28;20567;-83
2023/12/26 09:53:24;;;;;;;0.40;0.40;;;;;;;10.86;61.76;94831.81;5110436;28;20224;-83
2023/12/26 09:55:51;;;;;;;0.30;0.30;;;;;;;11.04;59.73;94841.47;5078973;28;20206;-82
2023/12/26 09:58:19;;;;;;;0.63;0.63;;;;;;;11.00;58.74;94829.69;5092276;28;20214;-82
2023/12/26 10:00:56;;;;;;;0.20;0.20;;;;;;;11.00;58.61;94826.97;5091295;28;20202;-82
2023/12/26 10:03:28;;;;;;;0.47;0.43;;;;;;;10.99;59.33;94828.88;5095314;28;20205;-82
2023/12/26 10:05:57;;;;;;;0.45;0.45;;;;;;;10.98;58.77;94816.44;5112027;28;20201;-82
2023/12/26 10:08:24;;;;;;;0.82;0.82;;;;;;;11.06;58.47;94822.97;5111868;28;20209;-82
2023/12/26 10:10:51;;;;;;;1.98;0.75;;;;;;;11.15;58.69;94810.16;5100083;28;20229;-82
2023/12/26 10:13:18;;;;;;;1.23;1.02;;;;;;;11.21;58.45;94805.34;5091814;28;20637;-82
2023/12/26 10:15:45;;;;;;;0.63;0.63;;;;;;;11.37;58.21;94803.66;5103299;28;20635;-83
2023/12/26 10:18:12;;;;;;;0.55;0.55;;;;;;;11.51;58.67;94801.50;5111296;28;20215;-82
2023/12/26 10:20:40;;;;;;;1.38;1.20;;;;;;;11.59;57.90;94795.25;5111173;28;20202;-81
2023/12/26 10:23:07;;;;;;;0.50;0.50;;;;;;;11.54;58.28;94789.19;5111449;28;20216;-81
2023/12/26 10:25:35;;;;;;;0.75;0.57;;;;;;;11.63;57.83;94792.66;5111641;28;20202;-82
2023/12/26 10:28:01;;;;;;;0.30;0.30;;;;;;;11.78;57.03;94783.94;5112480;28;20400;-82
2023/12/26 10:30:28;;;;;;;2.17;1.15;;;;;;;11.93;58.91;94780.63;5111648;28;20226;-83
2023/12/26 10:33:00;;;;;;;5.30;2.20;;;;;;;12.10;57.29;94768.84;5092260;28;20332;-82
2023/12/26 10:35:26;;;;;;;5.03;2.88;;;;;;;12.25;57.84;94772.84;5091300;28;20221;-83
2023/12/26 10:37:57;;;;;;;1.20;0.93;;;;;;;12.02;57.37;94767.81;5110712;28;20292;-82
2023/12/26 10:40:24;;;;;;;7.28;3.35;;;;;;;12.15;57.68;94770.56;5111615;28;20227;-83
2023/12/26 10:42:51;;;;;;;4.22;2.75;;;;;;;12.12;56.90;94763.09;5111682;28;20300;-82
2023/12/26 10:45:19;;;;;;;4.68;2.88;;;;;;;12.21;56.99;94770.00;5111019;28;20705;-82
2023/12/26 10:47:49;;;;;;;4.82;2.42;;;;;;;12.22;56.72;94773.53;5111358;28;20205;-82
2023/12/26 10:50:18;;;;;;;4.63;3.13;;;;;;;12.39;56.39;94776.06;5111371;28;20229;-82
2023/12/26 10:53:15;;;;;;;3.63;2.58;;;;;;;12.35;56.46;94764.28;5111579;28;20708;-83
2023/12/26 10:55:44;;;;;;;4.38;2.40;;;;;;;12.36;56.24;94765.88;5077492;28;20301;-83
2023/12/26 10:58:19;;;;;;;5.43;3.05;;;;;;;12.45;56.44;94753.00;5090815;28;20221;-83
2023/12/26 11:00:49;;;;;;;6.72;2.20;;;;;;;12.44;55.25;94751.41;5090847;28;20202;-83
2023/12/26 13:52:06;;;;;;;0.20;0.20;;;;;;;13.50;47.49;94610.66;5088429;28;20312;-82
2023/12/26 13:55:11;;;;;;;0.50;0.50;;;;;;;13.35;47.63;94600.50;5089962;28;20210;-81
2023/12/26 13:58:15;;;;;;;1.25;1.15;;;;;;;13.33;48.06;94608.22;5089407;28;20255;-82
2023/12/26 14:01:20;;;;;;;0.85;0.85;;;;;;;13.29;48.61;94596.44;5093674;28;20551;-78
2023/12/26 14:04:28;;;;;;;0.50;0.50;;;;;;;13.21;48.96;94600.09;5093254;28;20206;-83
2023/12/26 14:07:33;;;;;;;0.40;0.40;;;;;;;13.14;49.88;94605.28;5092910;28;20256;-82
2023/12/26 14:10:37;;;;;;;0.45;0.45;;;;;;;13.04;50.18;94589.47;5095474;28;20286;-85
2023/12/26 14:13:41;;;;;;;0.80;0.80;;;;;;;12.98;50.68;94596.28;5093789;28;20546;-84
2023/12/26 14:16:45;;;;;;;0.30;0.30;;;;;;;12.81;50.91;94592.69;5094433;28;20194;-77
2023/12/26 14:19:49;;;;;;;0.30;0.30;;;;;;;12.72;51.69;94583.84;5101901;28;20210;-82
2023/12/26 14:22:53;;;;;;;0.45;0.45;;;;;;;12.64;52.70;94587.47;5098071;28;20213;-88
2023/12/26 14:25:57;;;;;;;0.30;0.30;;;;;;;12.49;53.93;94590.88;5091252;28;20224;-79
2023/12/26 14:29:01;;;;;;;0.60;0.60;;;;;;;12.32;54.55;94591.09;5084054;28;20197;-80
2023/12/26 14:32:05;;;;;;;4.68;2.00;;;;;;;11.86;54.62;94595.81;5087290;28;20347;-78
2023/12/26 14:35:09;;;;;;;1.48;1.08;;;;;;;11.87;54.95;94594.69;5107155;28;20201;-78
2023/12/26 14:38:12;;;;;;;2.85;1.55;;;;;;;11.68;56.34;94606.03;5102434;28;20205;-78
2023/12/26 14:41:16;;;;;;;0.60;0.60;;;;;;;11.46;57.26;94602.91;5097644;28;20285;-78
2023/12/26 14:44:20;;;;;;;3.10;1.58;;;;;;;11.29;59.39;94615.47;5090345;28;20244;-78